Time;durP1;ratioP1;P1;durP2;ratioP2;P2;SDS_P1;SDS_P2;PMS_P1;PMS_P2;Temp;Humidity;BMP_temperature;BMP_pressure;BME280_temperature;BME280_humidity;BME280_pressure;Samples;Min_cycle;Max_cycle;Signal;HPM_P1;HPM_P2
2023/10/16 00:00:45;;;;;;;3.63;1.83;;;2.50;52.90;;;;;;5033236;28;20183;-71
2023/10/16 00:03:14;;;;;;;3.83;1.85;;;2.40;52.80;;;;;;5034521;28;20210;-71
2023/10/16 00:05:45;;;;;;;5.00;2.40;;;2.40;53.90;;;;;;5033008;28;20179;-71
2023/10/16 00:08:12;;;;;;;2.40;1.40;;;2.40;54.40;;;;;;5034179;28;20297;-70
2023/10/16 00:10:38;;;;;;;3.72;1.85;;;2.40;54.10;;;;;;5034673;28;20179;-71
2023/10/16 00:13:04;;;;;;;4.23;1.73;;;2.40;54.60;;;;;;5034349;28;20282;-71
2023/10/16 00:15:40;;;;;;;4.05;2.47;;;2.30;55.50;;;;;;5033011;28;20172;-71
2023/10/16 00:18:13;;;;;;;2.83;1.75;;;2.30;55.00;;;;;;5032669;28;20175;-71
2023/10/16 00:20:41;;;;;;;3.15;1.83;;;2.20;55.40;;;;;;5033970;28;20266;-70
2023/10/16 00:23:10;;;;;;;4.05;1.80;;;2.20;55.30;;;;;;5032700;28;20632;-71
2023/10/16 00:25:39;;;;;;;3.80;2.38;;;2.10;54.40;;;;;;5033932;28;20175;-71
2023/10/16 00:28:08;;;;;;;3.45;2.20;;;2.10;55.50;;;;;;5033703;28;20207;-71
2023/10/16 00:30:35;;;;;;;2.95;2.20;;;2.10;55.50;;;;;;5033830;28;20175;-71
2023/10/16 00:33:01;;;;;;;6.80;2.10;;;2.10;55.50;;;;;;5033866;28;20210;-70
2023/10/16 00:35:27;;;;;;;3.00;1.60;;;2.00;56.10;;;;;;5034156;28;20666;-71
2023/10/16 00:37:52;;;;;;;3.70;2.80;;;2.00;56.40;;;;;;5033697;28;20425;-71
2023/10/16 00:40:33;;;;;;;4.30;2.20;;;2.00;55.80;;;;;;5033706;28;20175;-71
2023/10/16 00:43:12;;;;;;;3.30;1.90;;;2.00;56.50;;;;;;5033662;28;20203;-71
2023/10/16 00:45:54;;;;;;;3.03;1.67;;;2.00;56.00;;;;;;5032249;28;20215;-71
2023/10/16 00:48:21;;;;;;;2.78;2.13;;;1.90;56.10;;;;;;5032244;28;20559;-71
2023/10/16 00:50:48;;;;;;;4.70;2.00;;;1.90;55.30;;;;;;5032320;28;20600;-71
2023/10/16 00:53:18;;;;;;;3.30;2.00;;;1.80;56.80;;;;;;5032163;28;20258;-71
2023/10/16 00:55:47;;;;;;;4.35;1.65;;;1.80;57.00;;;;;;5032674;28;20179;-72
2023/10/16 00:58:14;;;;;;;3.75;2.65;;;1.80;57.10;;;;;;5031812;28;20572;-71
2023/10/16 01:00:45;;;;;;;2.60;1.67;;;1.80;58.40;;;;;;5033285;28;20217;-71
2023/10/16 01:03:16;;;;;;;3.55;1.92;;;1.80;58.80;;;;;;5033227;28;20273;-71
2023/10/16 01:05:42;;;;;;;3.20;2.22;;;1.70;58.40;;;;;;5033168;28;20528;-70
2023/10/16 01:08:10;;;;;;;3.95;2.33;;;1.70;58.00;;;;;;5033034;28;20544;-71
2023/10/16 01:10:43;;;;;;;2.88;2.25;;;1.70;59.90;;;;;;5031808;28;20183;-71
2023/10/16 01:13:12;;;;;;;5.35;2.22;;;1.70;58.20;;;;;;5031694;28;20210;-72
2023/10/16 01:15:43;;;;;;;3.15;2.00;;;1.60;58.70;;;;;;5032922;28;20179;-70
2023/10/16 01:18:11;;;;;;;3.95;2.42;;;1.60;59.10;;;;;;5032701;28;20792;-71
2023/10/16 01:20:38;;;;;;;2.55;1.92;;;1.60;60.30;;;;;;5032963;28;20199;-71
2023/10/16 01:23:04;;;;;;;3.17;2.15;;;1.60;60.10;;;;;;5031526;28;20260;-71
2023/10/16 01:25:30;;;;;;;3.17;2.33;;;1.70;60.30;;;;;;5031445;28;20182;-71
2023/10/16 01:27:56;;;;;;;4.17;2.20;;;1.70;59.10;;;;;;5031206;28;20179;-71
2023/10/16 01:30:21;;;;;;;6.30;1.77;;;1.60;58.80;;;;;;5031396;28;20179;-71
2023/10/16 01:32:47;;;;;;;3.80;1.90;;;1.70;59.60;;;;;;5032562;28;20670;-71
2023/10/16 01:35:13;;;;;;;2.63;1.70;;;1.70;58.70;;;;;;5032566;28;20171;-71
2023/10/16 01:37:40;;;;;;;3.45;2.42;;;1.60;58.00;;;;;;5032389;28;20191;-71
2023/10/16 01:40:21;;;;;;;9.13;2.45;;;1.60;58.90;;;;;;5032817;28;20171;-71
2023/10/16 01:42:48;;;;;;;4.50;3.00;;;1.60;57.80;;;;;;5032482;28;20701;-71
2023/10/16 01:45:13;;;;;;;5.13;2.72;;;1.60;59.30;;;;;;5032490;28;20175;-71
2023/10/16 01:47:39;;;;;;;4.00;2.00;;;1.60;59.70;;;;;;5030890;28;20179;-71
2023/10/16 01:50:05;;;;;;;2.80;1.83;;;1.50;59.40;;;;;;5031021;28;20175;-72
2023/10/16 01:52:33;;;;;;;4.93;2.38;;;1.50;60.90;;;;;;5032225;28;20219;-71
2023/10/16 01:54:59;;;;;;;3.40;1.83;;;1.50;59.80;;;;;;5032235;28;20174;-71
2023/10/16 01:57:26;;;;;;;2.93;2.10;;;1.50;61.00;;;;;;5032083;28;20769;-71
2023/10/16 01:59:53;;;;;;;3.35;1.92;;;1.50;61.90;;;;;;5032148;28;20202;-72
2023/10/16 02:02:18;;;;;;;2.35;1.70;;;1.50;61.40;;;;;;5060609;22;20230;-67
2023/10/16 02:04:44;;;;;;;4.47;2.50;;;1.50;63.10;;;;;;5052049;28;20250;-67
2023/10/16 02:07:10;;;;;;;4.40;2.20;;;1.50;61.90;;;;;;5051617;28;20193;-67
2023/10/16 02:09:39;;;;;;;4.97;3.13;;;1.40;61.80;;;;;;5052039;28;20548;-67
2023/10/16 02:12:10;;;;;;;3.33;2.40;;;1.40;61.90;;;;;;5051895;28;20436;-66
2023/10/16 02:14:39;;;;;;;2.30;1.75;;;1.30;61.40;;;;;;5052036;28;20187;-67
2023/10/16 02:17:10;;;;;;;3.50;2.22;;;1.30;64.50;;;;;;5051650;28;20190;-67
2023/10/16 02:19:43;;;;;;;5.50;2.30;;;1.40;64.20;;;;;;5050611;28;20312;-67
2023/10/16 02:22:09;;;;;;;3.38;2.53;;;1.40;64.00;;;;;;5051821;28;20277;-67
2023/10/16 02:24:37;;;;;;;3.42;2.80;;;1.30;64.50;;;;;;5051872;28;20171;-67
2023/10/16 02:27:03;;;;;;;2.42;1.60;;;1.40;63.80;;;;;;5050235;28;20547;-67
2023/10/16 02:29:31;;;;;;;2.53;2.10;;;1.40;64.60;;;;;;5051765;28;20178;-67
2023/10/16 02:31:58;;;;;;;6.13;2.00;;;1.30;64.50;;;;;;5051601;28;20284;-67
2023/10/16 02:34:23;;;;;;;5.10;2.28;;;1.40;64.60;;;;;;5051642;28;20170;-68
2023/10/16 02:36:54;;;;;;;2.33;1.83;;;1.30;64.50;;;;;;5051353;28;20212;-68
2023/10/16 02:39:35;;;;;;;3.92;2.22;;;1.30;65.50;;;;;;5051722;28;20194;-68
2023/10/16 02:42:05;;;;;;;3.70;2.60;;;1.30;64.50;;;;;;5051596;28;20198;-68
2023/10/16 02:44:32;;;;;;;2.42;2.03;;;1.20;64.40;;;;;;5051992;28;20278;-67
2023/10/16 02:46:58;;;;;;;3.25;2.50;;;1.20;65.10;;;;;;5051443;28;20179;-67
2023/10/16 02:49:24;;;;;;;3.53;2.40;;;1.20;63.80;;;;;;5051628;28;20173;-67
2023/10/16 02:51:52;;;;;;;5.75;2.50;;;1.20;65.10;;;;;;5051345;28;20205;-68
2023/10/16 02:54:18;;;;;;;3.53;2.50;;;1.20;65.40;;;;;;5051510;28;20178;-68
2023/10/16 02:56:44;;;;;;;3.50;1.93;;;1.20;64.50;;;;;;5050229;28;20224;-68
2023/10/16 02:59:11;;;;;;;3.10;2.20;;;1.20;64.20;;;;;;5051487;28;20270;-68
2023/10/16 03:01:37;;;;;;;3.25;2.17;;;1.10;64.20;;;;;;5051195;28;20198;-68
2023/10/16 03:04:04;;;;;;;3.03;2.00;;;1.10;64.30;;;;;;5051467;28;20315;-68
2023/10/16 03:06:31;;;;;;;9.27;2.95;;;1.10;64.90;;;;;;5051612;28;20542;-67
2023/10/16 03:09:25;;;;;;;3.50;2.50;;;1.10;64.30;;;;;;5051495;28;20178;-67
2023/10/16 03:11:42;;;;;;;3.38;2.03;;;1.00;64.90;;;;;;5051287;28;20202;-67
2023/10/16 03:14:07;;;;;;;5.83;2.67;;;0.90;64.20;;;;;;5052134;28;20253;-67
2023/10/16 03:16:36;;;;;;;4.47;2.37;;;;;;;;;;5051587;28;20202;-67
2023/10/16 03:19:09;;;;;;;9.68;2.72;;;0.90;75.30;;;;;;5051605;28;20720;-67
2023/10/16 03:21:35;;;;;;;3.58;2.35;;;0.90;59.70;;;;;;5055525;28;20260;-67
2023/10/16 03:24:00;;;;;;;3.90;2.43;;;0.90;61.20;;;;;;5055262;28;20198;-67
2023/10/16 03:26:29;;;;;;;3.60;1.97;;;0.80;61.30;;;;;;5055242;28;20549;-67
2023/10/16 03:28:56;;;;;;;2.80;2.15;;;0.80;61.40;;;;;;5055207;28;20181;-67
2023/10/16 03:31:23;;;;;;;3.85;2.45;;;0.80;61.30;;;;;;5055029;28;20177;-67
2023/10/16 03:33:49;;;;;;;4.68;2.10;;;0.80;61.70;;;;;;5055162;28;20174;-67
2023/10/16 03:36:15;;;;;;;2.20;1.90;;;0.80;62.50;;;;;;5054835;28;20174;-67
2023/10/16 03:38:41;;;;;;;2.55;1.90;;;0.80;63.30;;;;;;5054967;28;20416;-67
2023/10/16 03:41:27;;;;;;;3.55;2.40;;;0.80;64.10;;;;;;5054853;28;20284;-67
2023/10/16 03:43:57;;;;;;;3.30;2.22;;;;;;;;;;5054841;28;20546;-67
2023/10/16 03:46:26;;;;;;;2.63;1.63;;;0.40;62.20;;;;;;5054617;28;20236;-67
2023/10/16 03:48:52;;;;;;;3.63;2.47;;;0.80;61.20;;;;;;5053832;28;20694;-67
2023/10/16 03:51:18;;;;;;;3.78;2.58;;;0.70;59.60;;;;;;5054652;28;20232;-67
2023/10/16 03:53:44;;;;;;;4.73;2.47;;;0.70;58.70;;;;;;5054694;28;20562;-67
2023/10/16 03:56:11;;;;;;;4.33;2.27;;;0.60;58.50;;;;;;5054778;28;20185;-67
2023/10/16 03:58:46;;;;;;;4.82;2.70;;;0.60;57.70;;;;;;5054563;28;20525;-67
2023/10/16 04:01:13;;;;;;;4.55;1.95;;;0.50;58.40;;;;;;5054643;28;20192;-67
2023/10/16 04:03:46;;;;;;;3.55;1.90;;;0.60;56.90;;;;;;5054408;28;20212;-67
2023/10/16 04:06:21;;;;;;;3.70;2.50;;;0.60;57.40;;;;;;5054591;28;20170;-67
2023/10/16 04:08:47;;;;;;;4.25;2.30;;;0.50;56.00;;;;;;5055125;28;20272;-67
2023/10/16 04:11:16;;;;;;;3.60;2.15;;;0.50;56.70;;;;;;5054778;28;20178;-67
2023/10/16 04:13:48;;;;;;;3.10;2.05;;;0.60;55.80;;;;;;5053813;28;20212;-67
2023/10/16 04:16:30;;;;;;;4.20;2.70;;;0.60;55.00;;;;;;5054603;28;20174;-67
2023/10/16 04:19:34;;;;;;;3.80;2.35;;;0.60;54.50;;;;;;5054824;28;20217;-67
2023/10/16 04:21:57;;;;;;;3.70;2.65;;;0.50;54.10;;;;;;5053908;28;20613;-67
2023/10/16 04:27:28;;;;;;;2.90;2.00;;;0.50;53.80;;;;;;5053731;28;20169;-67
2023/10/16 04:29:49;;;;;;;2.85;2.00;;;0.50;54.10;;;;;;5053748;28;20235;-67
2023/10/16 04:32:37;;;;;;;5.50;3.53;;;0.50;53.30;;;;;;5053795;28;20212;-67
2023/10/16 04:37:55;;;;;;;8.65;3.00;;;0.50;51.20;;;;;;5053674;28;20247;-67
2023/10/16 04:42:22;;;;;;;4.47;2.45;;;0.40;51.40;;;;;;5053768;28;20180;-67
2023/10/16 04:43:37;;;;;;;4.55;2.85;;;0.50;51.80;;;;;;5053283;28;20724;-67
2023/10/16 04:46:16;;;;;;;9.27;2.53;;;0.50;52.00;;;;;;5053521;28;20183;-67
2023/10/16 04:48:48;;;;;;;3.65;2.58;;;0.50;51.40;;;;;;5053540;28;20176;-67
2023/10/16 04:51:22;;;;;;;4.07;2.45;;;0.40;52.00;;;;;;5053509;28;20174;-67
2023/10/16 04:53:58;;;;;;;3.42;2.30;;;0.50;52.10;;;;;;5053309;28;20180;-67
2023/10/16 04:59:36;;;;;;;4.25;2.40;;;0.40;50.60;;;;;;5053542;28;20237;-67
2023/10/16 05:02:10;;;;;;;3.70;2.40;;;0.40;50.60;;;;;;5052921;28;20227;-67
2023/10/16 05:04:59;;;;;;;4.45;2.60;;;0.30;52.00;;;;;;5053289;28;20544;-67
2023/10/16 05:10:12;;;;;;;3.70;2.50;;;0.50;52.50;;;;;;5053114;28;20245;-67
2023/10/16 05:13:17;;;;;;;9.80;3.30;;;0.50;50.70;;;;;;5053033;28;20191;-67
2023/10/16 05:15:51;;;;;;;4.15;3.08;;;0.40;51.80;;;;;;5052868;28;20706;-67
2023/10/16 05:18:42;;;;;;;4.32;3.03;;;0.50;51.60;;;;;;5051394;28;20286;-67
2023/10/16 06:15:48;;;;;;;5.65;3.88;;;0.70;50.70;;;;;;5052050;28;20687;-68
2023/10/16 06:18:13;;;;;;;5.57;4.47;;;0.80;51.20;;;;;;5051607;28;20237;-68
2023/10/16 06:20:43;;;;;;;9.33;4.77;;;0.90;52.00;;;;;;5051807;28;20185;-68
2023/10/16 06:23:10;;;;;;;7.90;4.15;;;0.90;51.60;;;;;;5051754;28;20238;-67
2023/10/16 06:25:37;;;;;;;5.50;4.13;;;0.90;51.80;;;;;;5051708;28;20178;-67
2023/10/16 06:28:10;;;;;;;5.47;4.35;;;0.90;51.20;;;;;;5051484;28;20188;-67
2023/10/16 06:30:37;;;;;;;8.15;4.25;;;1.00;52.50;;;;;;5051896;28;20285;-67
2023/10/16 06:33:06;;;;;;;5.97;5.38;;;1.10;53.00;;;;;;5051600;28;20280;-67
2023/10/16 06:35:33;;;;;;;11.80;5.50;;;1.20;52.30;;;;;;5051755;28;20182;-67
2023/10/16 06:38:00;;;;;;;5.88;4.30;;;1.20;51.40;;;;;;5051345;28;20250;-67
2023/10/16 06:40:26;;;;;;;7.03;4.95;;;1.20;51.70;;;;;;5051544;28;20248;-67
2023/10/16 06:43:09;;;;;;;6.53;5.17;;;1.30;52.70;;;;;;5051405;28;20202;-67
2023/10/16 06:45:55;;;;;;;8.38;5.18;;;1.40;52.90;;;;;;5051665;28;20439;-67
2023/10/16 06:48:21;;;;;;;10.13;5.80;;;1.60;55.00;;;;;;5051365;28;20535;-67
2023/10/16 06:51:03;;;;;;;7.50;5.65;;;1.70;52.80;;;;;;5051589;28;20170;-67
2023/10/16 06:53:30;;;;;;;7.60;6.22;;;1.70;49.90;;;;;;5050104;28;20280;-67
2023/10/16 06:55:55;;;;;;;9.88;6.55;;;1.80;47.50;;;;;;5054752;28;20181;-67
2023/10/16 06:58:21;;;;;;;13.20;6.70;;;1.80;48.30;;;;;;5055189;28;20565;-67
2023/10/16 07:00:52;;;;;;;10.30;6.27;;;1.80;48.00;;;;;;5055850;28;20752;-67
2023/10/16 07:03:18;;;;;;;9.13;6.90;;;1.90;49.50;;;;;;5053896;28;20218;-68
2023/10/16 07:05:43;;;;;;;6.97;5.60;;;2.00;49.20;;;;;;5055370;28;20185;-67
2023/10/16 07:08:10;;;;;;;9.13;6.80;;;2.10;54.00;;;;;;5055261;28;20488;-67
2023/10/16 07:10:41;;;;;;;10.40;6.45;;;2.30;53.90;;;;;;5055480;28;20555;-67
2023/10/16 07:13:08;;;;;;;11.40;6.38;;;2.30;52.90;;;;;;5055263;28;20199;-67
2023/10/16 07:15:34;;;;;;;11.77;7.18;;;2.20;52.00;;;;;;5053845;28;20190;-67
2023/10/16 07:18:05;;;;;;;12.83;6.40;;;2.40;52.10;;;;;;5053639;28;20210;-67
2023/10/16 07:20:33;;;;;;;7.95;5.40;;;2.50;46.10;;;;;;5055132;28;20183;-67
2023/10/16 07:22:59;;;;;;;8.88;4.88;;;2.50;43.20;;;;;;5055026;28;20632;-67
2023/10/16 07:25:37;;;;;;;12.10;5.43;;;2.60;40.20;;;;;;5054902;28;20271;-67
2023/10/16 07:28:09;;;;;;;8.70;5.63;;;2.70;41.80;;;;;;5054720;28;20916;-67
2023/10/16 07:30:35;;;;;;;14.85;7.25;;;2.80;40.50;;;;;;5054984;28;20225;-67
2023/10/16 07:33:01;;;;;;;27.83;13.55;;;2.80;41.40;;;;;;5054782;28;20635;-67
2023/10/16 07:35:27;;;;;;;11.50;7.93;;;2.80;41.90;;;;;;5054778;28;20209;-67
2023/10/16 07:37:55;;;;;;;59.03;21.30;;;2.90;41.50;;;;;;5054649;28;20607;-67
2023/10/16 07:40:21;;;;;;;12.00;8.18;;;3.00;40.10;;;;;;5054668;28;20783;-67
2023/10/16 07:42:47;;;;;;;8.20;6.18;;;3.10;39.50;;;;;;5053332;28;20571;-67
2023/10/16 07:45:13;;;;;;;8.85;6.28;;;3.20;39.60;;;;;;5054574;28;20202;-67
2023/10/16 07:47:39;;;;;;;5.90;4.97;;;3.30;36.70;;;;;;5054461;28;20206;-67
2023/10/16 07:50:07;;;;;;;9.90;6.53;;;3.30;36.70;;;;;;5054617;28;20680;-67
2023/10/16 07:52:33;;;;;;;15.35;6.72;;;3.20;33.40;;;;;;5054440;28;20425;-67
2023/10/16 07:54:59;;;;;;;9.73;6.60;;;3.30;34.80;;;;;;5052982;28;20189;-67
2023/10/16 07:57:24;;;;;;;21.70;10.33;;;3.40;33.90;;;;;;5054119;28;20458;-67
2023/10/16 07:59:54;;;;;;;11.30;7.93;;;3.40;33.50;;;;;;5054540;28;20178;-67
2023/10/16 08:02:20;;;;;;;48.92;20.65;;;3.50;33.30;;;;;;5179744;22;20228;-68
2023/10/16 08:04:51;;;;;;;11.50;6.50;;;3.50;32.60;;;;;;5033974;28;20236;-68
2023/10/16 08:07:34;;;;;;;7.78;5.50;;;3.50;32.40;;;;;;5033960;28;20268;-68
2023/10/16 08:10:39;;;;;;;10.48;4.85;;;3.50;31.80;;;;;;5034219;28;20225;-68
2023/10/16 08:12:47;;;;;;;9.75;6.72;;;3.50;32.50;;;;;;5033948;28;20203;-68
2023/10/16 08:15:15;;;;;;;6.70;5.17;;;3.60;33.10;;;;;;5033178;28;20190;-68
2023/10/16 08:17:44;;;;;;;17.83;7.80;;;3.80;33.30;;;;;;5034143;28;20207;-68
2023/10/16 08:20:17;;;;;;;24.55;7.45;;;3.90;29.30;;;;;;5034312;28;20193;-68
2023/10/16 08:22:46;;;;;;;24.27;11.75;;;3.90;29.10;;;;;;5034145;28;20562;-68
2023/10/16 08:25:30;;;;;;;10.50;5.38;;;3.90;29.70;;;;;;5033876;28;20707;-67
2023/10/16 08:27:58;;;;;;;9.05;5.03;;;3.80;30.00;;;;;;5034133;28;20172;-68
2023/10/16 08:30:33;;;;;;;8.20;5.75;;;3.80;31.90;;;;;;5032433;28;20599;-68
2023/10/16 08:33:08;;;;;;;8.30;5.70;;;3.80;32.40;;;;;;5034024;28;20203;-68
2023/10/16 08:35:41;;;;;;;7.05;5.07;;;3.90;32.10;;;;;;5033955;28;20180;-68
2023/10/16 08:38:20;;;;;;;4.90;4.30;;;4.00;30.50;;;;;;5033471;28;20575;-68
2023/10/16 08:40:57;;;;;;;10.05;5.75;;;4.00;29.70;;;;;;5033820;28;20186;-68
2023/10/16 08:43:39;;;;;;;7.60;5.05;;;4.10;30.40;;;;;;5033755;28;20282;-68
2023/10/16 08:46:18;;;;;;;6.05;4.65;;;4.30;26.60;;;;;;5033839;28;20180;-68
2023/10/16 08:48:45;;;;;;;5.10;4.50;;;4.40;26.30;;;;;;5033825;28;20290;-68
2023/10/16 08:51:12;;;;;;;8.93;4.97;;;4.50;25.70;;;;;;5033678;28;20191;-68
2023/10/16 08:53:38;;;;;;;9.25;4.40;;;4.60;27.50;;;;;;5033454;28;20197;-68
2023/10/16 08:56:08;;;;;;;20.17;8.57;;;4.80;26.30;;;;;;5033694;28;20185;-68
2023/10/16 08:58:39;;;;;;;5.05;4.30;;;4.90;24.90;;;;;;5033280;28;20303;-68
2023/10/16 09:01:07;;;;;;;7.50;4.93;;;5.10;26.10;;;;;;5033432;28;20176;-68
2023/10/16 09:03:36;;;;;;;7.25;5.13;;;5.20;26.00;;;;;;5033178;28;20241;-68
2023/10/16 09:06:04;;;;;;;8.35;4.95;;;5.40;24.40;;;;;;5033431;28;20203;-68
2023/10/16 09:08:33;;;;;;;6.07;3.80;;;5.60;23.60;;;;;;5033358;28;20200;-68
2023/10/16 09:11:05;;;;;;;6.75;4.32;;;5.80;19.10;;;;;;5033189;28;20412;-68
2023/10/16 09:13:35;;;;;;;8.87;4.80;;;5.90;19.60;;;;;;5033521;28;20264;-68
2023/10/16 09:16:02;;;;;;;8.90;5.63;;;6.00;18.10;;;;;;5033506;28;20443;-68
2023/10/16 09:18:27;;;;;;;7.60;5.40;;;6.20;18.20;;;;;;5032248;28;20455;-68
2023/10/16 09:21:00;;;;;;;10.10;6.00;;;6.40;18.40;;;;;;5033760;28;20777;-68
2023/10/16 09:23:36;;;;;;;6.37;3.70;;;6.60;17.60;;;;;;5033829;28;20199;-68
2023/10/16 09:26:02;;;;;;;6.90;4.40;;;6.80;15.20;;;;;;5034011;28;20500;-68
2023/10/16 09:28:32;;;;;;;7.53;4.43;;;7.00;14.70;;;;;;5033821;28;20429;-68
2023/10/16 09:31:01;;;;;;;4.00;3.60;;;7.10;13.80;;;;;;5033973;28;20410;-68
2023/10/16 09:33:27;;;;;;;5.63;4.53;;;7.30;13.10;;;;;;5034162;28;20491;-68
2023/10/16 09:36:00;;;;;;;12.17;5.87;;;7.40;14.30;;;;;;5034024;28;20414;-68
2023/10/16 09:38:32;;;;;;;8.97;5.37;;;7.50;13.20;;;;;;5034305;28;20458;-68
2023/10/16 09:43:56;;;;;;;9.00;4.93;;;7.90;13.50;;;;;;5034314;28;20897;-68
2023/10/16 09:49:09;;;;;;;9.23;6.03;;;8.40;11.00;;;;;;5034077;28;20406;-68
2023/10/16 09:51:35;;;;;;;4.33;3.23;;;8.30;11.20;;;;;;5034243;28;20441;-68
2023/10/16 09:54:02;;;;;;;8.90;5.30;;;8.20;11.70;;;;;;5034275;28;20406;-68
2023/10/16 09:56:35;;;;;;;6.83;4.43;;;8.30;11.20;;;;;;5034049;28;20447;-68
2023/10/16 09:59:08;;;;;;;10.20;4.40;;;8.30;11.80;;;;;;5034373;28;20946;-68
2023/10/16 10:01:38;;;;;;;5.93;3.77;;;8.30;10.50;;;;;;5034352;28;20909;-68
2023/10/16 10:04:07;;;;;;;9.63;4.70;;;8.40;9.40;;;;;;5033564;28;20431;-68
2023/10/16 10:06:35;;;;;;;7.90;3.20;;;8.30;9.30;;;;;;5033675;28;20417;-68
2023/10/16 10:11:38;;;;;;;3.63;2.97;;;8.30;7.00;;;;;;5032083;28;20933;-68
2023/10/16 10:16:58;;;;;;;4.90;2.20;;;8.20;7.60;;;;;;5032969;28;20454;-68
2023/10/16 10:19:39;;;;;;;3.73;2.13;;;8.40;7.50;;;;;;5033969;28;20423;-68
2023/10/16 10:22:16;;;;;;;7.33;2.90;;;8.40;6.70;;;;;;5033744;28;20450;-68
2023/10/16 10:25:09;;;;;;;5.33;3.00;;;8.60;7.70;;;;;;5033006;28;20442;-68
2023/10/16 10:27:41;;;;;;;7.40;3.40;;;8.80;6.30;;;;;;5033877;28;20965;-68
2023/10/16 10:30:16;;;;;;;5.20;3.30;;;8.90;7.10;;;;;;5033278;28;20443;-68
2023/10/16 10:32:42;;;;;;;5.07;3.87;;;9.10;6.60;;;;;;5034670;28;20439;-68
2023/10/16 10:35:38;;;;;;;5.93;2.90;;;9.10;5.40;;;;;;5034293;28;20413;-68
2023/10/16 10:38:29;;;;;;;4.37;3.27;;;9.10;5.00;;;;;;5034413;28;20206;-68
2023/10/16 10:41:08;;;;;;;7.40;4.47;;;9.20;5.40;;;;;;5033873;28;20425;-68
2023/10/16 10:43:49;;;;;;;4.53;3.43;;;9.30;5.50;;;;;;5034533;28;20523;-68
2023/10/16 10:46:20;;;;;;;5.00;3.50;;;9.30;5.50;;;;;;5034693;28;20971;-68
2023/10/16 10:48:46;;;;;;;5.10;3.07;;;9.50;5.20;;;;;;5034246;28;20415;-68
2023/10/16 10:51:14;;;;;;;4.17;3.20;;;9.60;4.20;;;;;;5035240;28;20938;-68
2023/10/16 10:53:57;;;;;;;6.30;4.40;;;9.70;1.30;;;;;;5034216;28;20194;-68
2023/10/16 10:56:23;;;;;;;7.13;3.50;;;9.80;1.30;;;;;;5034590;28;20500;-68
2023/10/16 10:58:49;;;;;;;12.97;5.40;;;10.00;1.50;;;;;;5034640;28;20460;-68
2023/10/16 11:01:33;;;;;;;9.83;5.07;;;10.00;1.00;;;;;;5034132;28;20460;-68
2023/10/16 11:04:01;;;;;;;53.37;15.47;;;10.20;2.50;;;;;;5034505;28;20442;-68
2023/10/16 11:06:41;;;;;;;9.30;5.60;;;10.40;2.30;;;;;;5034510;28;20418;-68
2023/10/16 11:09:13;;;;;;;7.03;3.50;;;10.60;1.60;;;;;;5035191;28;20405;-68
2023/10/16 11:11:39;;;;;;;10.97;6.00;;;10.60;1.10;;;;;;5034197;28;20424;-68
2023/10/16 11:14:07;;;;;;;4.30;2.73;;;10.80;1.20;;;;;;5034751;28;20471;-68
2023/10/16 11:16:40;;;;;;;3.13;2.50;;;10.80;1.00;;;;;;5034092;28;20942;-68
2023/10/16 11:19:08;;;;;;;12.30;3.70;;;10.80;1.00;;;;;;5034975;28;20449;-68
2023/10/16 11:21:43;;;;;;;19.03;9.60;;;10.90;1.00;;;;;;5035103;28;20420;-68
2023/10/16 11:24:11;;;;;;;8.43;4.80;;;11.00;1.00;;;;;;5034762;28;20410;-68
2023/10/16 11:26:38;;;;;;;9.30;4.87;;;11.10;1.00;;;;;;5034561;28;20418;-68
2023/10/16 11:29:04;;;;;;;5.27;3.80;;;11.20;1.00;;;;;;5034167;28;20435;-69
2023/10/16 11:31:30;;;;;;;5.97;3.80;;;11.40;1.00;;;;;;5033856;28;20412;-68
2023/10/16 11:34:06;;;;;;;4.17;3.10;;;11.40;1.00;;;;;;5033711;28;20782;-68
2023/10/16 11:36:34;;;;;;;8.17;6.00;;;11.40;1.00;;;;;;5033457;28;20168;-68
2023/10/16 11:39:02;;;;;;;5.17;4.03;;;11.40;1.00;;;;;;5034312;28;20417;-68
2023/10/16 11:41:32;;;;;;;9.07;5.80;;;11.50;1.00;;;;;;5036491;28;20816;-68
2023/10/16 11:44:02;;;;;;;8.07;5.57;;;11.60;1.00;;;;;;5036986;28;20417;-68
2023/10/16 11:46:34;;;;;;;4.60;3.50;;;11.70;1.00;;;;;;5037494;28;20541;-68
2023/10/16 11:49:29;;;;;;;5.80;4.70;;;11.80;1.00;;;;;;5036618;28;20916;-68
2023/10/16 11:54:59;;;;;;;5.13;3.40;;;12.00;1.00;;;;;;5003943;28;20422;-68
2023/10/16 11:57:27;;;;;;;5.10;4.37;;;12.00;1.00;;;;;;5037878;28;20900;-69
2023/10/16 11:59:52;;;;;;;3.50;3.17;;;12.10;1.00;;;;;;5036783;28;20448;-68
2023/10/16 12:02:19;;;;;;;4.13;2.97;;;12.20;1.00;;;;;;5036369;28;20920;-68
2023/10/16 12:04:46;;;;;;;4.43;3.63;;;12.40;1.00;;;;;;5036619;28;20164;-69
2023/10/16 12:07:13;;;;;;;4.63;3.30;;;12.50;1.00;;;;;;5035622;28;20419;-69
2023/10/16 12:09:47;;;;;;;4.37;3.50;;;12.60;1.00;;;;;;5035998;28;20785;-69
2023/10/16 12:12:19;;;;;;;3.30;2.80;;;12.70;1.00;;;;;;5036110;28;20486;-68
2023/10/16 12:14:45;;;;;;;3.07;2.73;;;12.80;1.00;;;;;;5036824;28;20416;-69
2023/10/16 12:17:13;;;;;;;4.47;3.03;;;12.80;1.00;;;;;;5036783;28;20475;-68
2023/10/16 12:19:39;;;;;;;4.37;4.07;;;12.80;1.00;;;;;;5036657;28;20486;-69
2023/10/16 12:22:08;;;;;;;4.37;3.83;;;12.90;1.00;;;;;;5036122;28;20426;-68
2023/10/16 12:24:34;;;;;;;2.77;2.50;;;12.80;1.00;;;;;;5036025;28;20179;-68
2023/10/16 12:27:01;;;;;;;5.13;2.57;;;12.70;1.00;;;;;;5036136;28;20935;-68
2023/10/16 12:29:27;;;;;;;2.77;2.50;;;13.00;1.00;;;;;;5035864;28;20249;-68
2023/10/16 12:31:54;;;;;;;3.80;2.50;;;13.10;1.00;;;;;;5036408;28;20417;-69
2023/10/16 12:34:22;;;;;;;2.50;2.30;;;13.10;1.00;;;;;;5036279;28;20258;-68
2023/10/16 12:36:49;;;;;;;2.90;2.70;;;13.20;1.00;;;;;;5035945;28;20445;-69
2023/10/16 12:39:24;;;;;;;3.43;3.10;;;13.30;1.00;;;;;;5035862;28;20786;-69
2023/10/16 12:41:56;;;;;;;3.40;3.10;;;13.40;1.00;;;;;;5035957;28;20405;-69
2023/10/16 12:44:23;;;;;;;3.30;3.00;;;13.60;1.00;;;;;;5035860;28;20449;-69
2023/10/16 12:46:50;;;;;;;3.10;2.80;;;13.50;1.00;;;;;;5035094;28;20920;-68
2023/10/16 12:49:15;;;;;;;3.00;2.80;;;13.50;1.00;;;;;;5035681;28;20424;-69
2023/10/16 12:51:42;;;;;;;3.50;3.20;;;13.40;1.00;;;;;;5035575;28;20419;-68
2023/10/16 12:54:09;;;;;;;2.80;2.57;;;13.50;1.00;;;;;;5035838;28;20548;-69
2023/10/16 12:56:35;;;;;;;3.60;3.30;;;13.50;1.00;;;;;;5035107;28;20425;-69
2023/10/16 12:59:01;;;;;;;4.73;3.53;;;13.50;1.00;;;;;;5035587;28;20417;-69
2023/10/16 13:01:27;;;;;;;2.80;2.60;;;13.60;1.00;;;;;;5035706;28;20417;-69
2023/10/16 13:03:59;;;;;;;4.10;3.37;;;13.60;1.00;;;;;;5034961;28;20531;-68
2023/10/16 13:06:28;;;;;;;3.80;2.97;;;13.60;1.00;;;;;;5035660;28;20206;-68
2023/10/16 13:08:57;;;;;;;3.50;3.20;;;13.70;1.00;;;;;;5035134;28;20427;-69
2023/10/16 13:11:24;;;;;;;3.20;3.00;;;13.70;1.00;;;;;;5035231;28;20526;-68
2023/10/16 13:13:50;;;;;;;4.10;3.17;;;13.60;1.00;;;;;;5033300;28;21005;-68
2023/10/16 13:16:24;;;;;;;3.10;2.90;;;13.50;1.00;;;;;;5034807;28;20781;-68
2023/10/16 13:18:57;;;;;;;3.07;2.87;;;13.50;1.00;;;;;;5034634;28;20618;-68
2023/10/16 13:21:35;;;;;;;3.30;3.00;;;13.60;1.00;;;;;;5035094;28;20474;-68
2023/10/16 13:24:16;;;;;;;3.60;3.30;;;13.60;1.00;;;;;;5033020;28;20426;-68
2023/10/16 13:26:42;;;;;;;3.00;2.70;;;13.60;1.00;;;;;;5034746;28;20527;-68
2023/10/16 13:29:10;;;;;;;3.77;2.47;;;13.70;1.00;;;;;;5034303;28;20434;-66
2023/10/16 13:31:40;;;;;;;2.67;2.47;;;13.90;1.00;;;;;;5034677;28;20420;-66
2023/10/16 13:34:13;;;;;;;3.13;2.90;;;13.90;1.00;;;;;;5035191;28;20422;-66
2023/10/16 13:36:42;;;;;;;3.13;2.70;;;14.00;1.00;;;;;;5034181;28;20506;-66
2023/10/16 13:39:11;;;;;;;2.97;2.77;;;13.90;1.00;;;;;;5034623;28;20520;-66
2023/10/16 13:41:50;;;;;;;3.10;2.80;;;13.90;1.00;;;;;;5034639;28;20427;-69
2023/10/16 13:44:20;;;;;;;3.07;2.80;;;14.00;1.00;;;;;;5034560;28;20501;-68
2023/10/16 13:46:49;;;;;;;2.87;2.67;;;14.00;1.00;;;;;;5034009;28;20812;-69
2023/10/16 13:49:17;;;;;;;3.40;3.10;;;13.90;1.00;;;;;;5034638;28;20519;-69
2023/10/16 13:51:44;;;;;;;3.20;2.90;;;14.00;1.00;;;;;;5034594;28;20459;-68
2023/10/16 13:54:12;;;;;;;3.00;2.80;;;14.00;1.00;;;;;;5034810;28;20453;-68
2023/10/16 13:56:42;;;;;;;3.10;2.83;;;13.90;1.00;;;;;;5034056;28;20467;-69
2023/10/16 13:59:08;;;;;;;3.33;2.93;;;13.80;1.00;;;;;;5034453;28;20511;-69
2023/10/16 14:01:38;;;;;;;4.27;2.77;;;13.90;1.00;;;;;;5034222;28;20490;-68
2023/10/16 14:04:15;;;;;;;2.93;2.73;;;13.80;1.00;;;;;;5044933;22;21021;-68
2023/10/16 14:06:46;;;;;;;9.53;2.87;;;13.80;1.00;;;;;;5032289;28;20399;-68
2023/10/16 14:09:18;;;;;;;2.90;2.70;;;13.80;1.00;;;;;;5032194;28;20957;-68
2023/10/16 14:11:50;;;;;;;3.20;3.00;;;13.80;1.00;;;;;;5032350;28;20402;-67
2023/10/16 14:14:20;;;;;;;3.20;2.90;;;13.70;1.00;;;;;;5032163;28;20424;-68
2023/10/16 14:16:52;;;;;;;3.90;3.57;;;13.60;1.00;;;;;;5031911;28;20432;-68
2023/10/16 14:19:22;;;;;;;2.93;2.73;;;13.60;1.00;;;;;;5032254;28;20434;-67
2023/10/16 14:21:52;;;;;;;3.40;3.10;;;13.50;1.00;;;;;;5032416;28;20497;-68
2023/10/16 14:24:24;;;;;;;2.90;2.70;;;13.50;1.00;;;;;;5031981;28;20431;-67
2023/10/16 14:26:57;;;;;;;2.97;2.77;;;13.50;1.00;;;;;;5031715;28;20410;-68
2023/10/16 14:29:24;;;;;;;3.73;3.47;;;13.40;1.00;;;;;;5032025;28;20434;-67
2023/10/16 14:31:51;;;;;;;3.37;3.17;;;13.40;1.00;;;;;;5031874;28;20499;-67
2023/10/16 14:34:23;;;;;;;3.20;3.00;;;13.40;1.00;;;;;;5030492;28;21026;-67